Airfield :
LOGIN :

Register | Disclaimer

   EN    FR    IT 

 










Legend :    VFR   Marginal VFR   IFR   Intensive IFR   Very Intensive IFR
Visi :
Ceiling :
>= 8 km
>= 3000ft
5 to 8 km
1000 to 3000 ft
1500m to 5 km
500 to 1000 ft
800 to 1500m
200 to 500 ft
< 800m
< 200 ft
Symbols :   Thunderstorms  Fog  Heavy snow  Heavy precipitations  Wind > 20 kt
SIGMETs :     Misc.  Thunderstorms  Icing  Turbulence  Mountain Waves  Volcanic Ashes






- Airport Elevation : 74 ft
- IATA code : MRS


LFML - Marseille / Marignane

CURRENT METAR :
  • 131200Z AUTO 17014KT CAVOK 31/14 Q1014 NOSIG

EXPIRED METARs :
  • 131130Z AUTO 18012KT 150V210 CAVOK 30/16 Q1014 NOSIG
  • 131100Z AUTO 17011KT 9999 ///TCU 30/16 Q1015 BECMG NSC
  • 131030Z AUTO 17010KT 140V210 9999 ///TCU 31/15 Q1014 BECMG NSC
  • 131000Z AUTO 21005KT 120V280 CAVOK 32/16 Q1014 NOSIG
  • 130930Z AUTO 17008KT 120V220 CAVOK 32/16 Q1014 NOSIG
  • 130900Z AUTO 16008KT 130V220 CAVOK 32/15 Q1014 NOSIG

TAF TAF LFML
Valid from the 13 at 09:00 until the 14 at 15:00 UTC


130800Z 1309/1415 10010KT CAVOK TX32/1314Z TN21/1405Z
BECMG 1309/1311 18012KT
BECMG 1317/1320 VRB04KT SCT010
TEMPO 1322/1407 2000 BR BKN008
BECMG 1406/1408 34010KT CAVOK
ATIS : +33 4 42 31 15 15



MET'MAP, your aeronautical weather chart ! - Copyright ORBIFLY December 2007 - Disclaimer

ORBIFLY MET'MAP TEAM :

Programming & Development : Alexandra Zaïnal
Concept & original design : Baudouin d'Aumeries
Assistance for programming : Marc-Olivier Méhu
Technical & hardware support : Manuel Goepfert

Contact : metmap@orbifly.com




SOURCES & CREDITS :

   NOAA